Time;durP1;ratioP1;P1;durP2;ratioP2;P2;SDS_P1;SDS_P2;PMS_P1;PMS_P2;Temp;Humidity;BMP_temperature;BMP_pressure;BME280_temperature;BME280_humidity;BME280_pressure;Samples;Min_cycle;Max_cycle;Signal;HPM_P1;HPM_P2
2022/12/26 00:08:53;;;;;;;0.73;0.68;;;;;;;4.15;100.00;100317.84;6301428;22;20073;-91
2022/12/26 00:11:19;;;;;;;1.23;1.17;;;;;;;4.12;100.00;100315.88;6225381;22;20022;-88
2022/12/26 00:13:45;;;;;;;2.33;2.13;;;;;;;4.18;100.00;100328.06;6225577;22;20007;-90
2022/12/26 00:16:16;;;;;;;1.00;0.95;;;;;;;4.14;100.00;100330.00;6227487;22;20023;-91
2022/12/26 00:18:43;;;;;;;2.50;2.35;;;;;;;4.00;100.00;100318.97;6233476;22;20031;-95
2022/12/26 00:21:10;;;;;;;0.98;0.80;;;;;;;4.02;100.00;100313.88;6239336;22;20030;-96
2022/12/26 00:23:37;;;;;;;1.83;1.63;;;;;;;4.06;100.00;100320.97;6237946;22;20023;-95
2022/12/26 00:26:13;;;;;;;0.60;0.60;;;;;;;3.88;100.00;100294.63;6238370;22;20452;-94
2022/12/26 00:28:39;;;;;;;1.35;1.25;;;;;;;4.21;100.00;100338.25;6240877;22;20071;-96
2022/12/26 00:31:07;;;;;;;1.25;1.25;;;;;;;4.06;100.00;100289.97;6241898;22;20011;-94
2022/12/26 00:33:34;;;;;;;2.28;2.08;;;;;;;4.16;100.00;100306.50;6238079;22;20015;-94
2022/12/26 00:36:04;;;;;;;0.68;0.68;;;;;;;4.06;100.00;100289.97;6235237;22;20073;-95
2022/12/26 00:38:29;;;;;;;5.35;1.75;;;;;;;4.29;100.00;100309.66;6232068;22;20012;-96
2022/12/26 00:40:55;;;;;;;3.20;2.53;;;;;;;4.22;100.00;100290.41;6231039;22;20046;-95
2022/12/26 00:43:21;;;;;;;1.25;1.17;;;;;;;4.12;100.00;100271.97;6231555;22;20386;-96
2022/12/26 00:45:47;;;;;;;1.23;1.10;;;;;;;4.41;100.00;100308.53;6231285;22;20326;-96
2022/12/26 00:48:13;;;;;;;1.02;0.93;;;;;;;4.23;100.00;100284.56;6230417;22;20011;-95
2022/12/26 00:50:39;;;;;;;0.40;0.40;;;;;;;4.21;100.00;100277.84;6230388;22;20011;-96
2022/12/26 00:53:05;;;;;;;0.85;0.73;;;;;;;4.35;100.00;100304.56;6232561;22;20011;-90
2022/12/26 00:55:30;;;;;;;1.75;1.65;;;;;;;4.43;100.00;100323.44;6233952;22;20015;-95
2022/12/26 00:57:56;;;;;;;2.25;2.08;;;;;;;4.20;100.00;100277.09;6231752;22;20014;-95
2022/12/26 01:00:22;;;;;;;0.65;0.65;;;;;;;4.31;100.00;100304.56;6232417;22;20011;-95
2022/12/26 01:02:48;;;;;;;1.30;1.25;;;;;;;4.45;100.00;100337.56;6227018;22;20011;-95
2022/12/26 01:05:13;;;;;;;1.55;1.45;;;;;;;4.38;100.00;100315.56;6201694;22;20026;-96
2022/12/26 01:07:39;;;;;;;1.50;1.40;;;;;;;4.32;100.00;100327.34;6231035;23;20390;-95
2022/12/26 01:10:07;;;;;;;1.75;1.65;;;;;;;4.29;100.00;100323.38;6196932;23;20008;-94
2022/12/26 01:12:33;;;;;;;2.20;2.05;;;;;;;4.20;100.00;100309.25;6197782;23;20016;-94
2022/12/26 01:14:59;;;;;;;3.75;2.55;;;;;;;4.25;100.00;100319.84;6227223;23;20580;-95
2022/12/26 01:17:26;;;;;;;2.08;1.98;;;;;;;4.21;100.00;100321.78;6242114;22;20004;-96
2022/12/26 01:19:52;;;;;;;1.30;1.20;;;;;;;4.17;100.00;100321.78;6210402;23;20008;-95
2022/12/26 01:22:18;;;;;;;0.88;0.88;;;;;;;4.10;100.00;100318.22;6222573;23;20071;-93
2022/12/26 01:24:44;;;;;;;1.02;0.77;;;;;;;4.01;100.00;100301.31;6218753;23;20019;-95
2022/12/26 01:27:10;;;;;;;1.40;1.35;;;;;;;4.04;100.00;100311.53;6204241;23;20062;-96
2022/12/26 01:29:36;;;;;;;2.05;1.95;;;;;;;3.88;100.00;100297.38;6204076;23;20016;-95
2022/12/26 01:32:02;;;;;;;2.08;1.90;;;;;;;4.11;100.00;100333.53;6199075;23;20173;-91
2022/12/26 01:34:28;;;;;;;1.75;1.65;;;;;;;3.92;100.00;100298.16;6216627;23;20047;-92
2022/12/26 01:36:54;;;;;;;1.45;1.35;;;;;;;4.19;100.00;100329.63;6191843;23;20074;-89
2022/12/26 01:39:20;;;;;;;1.48;1.40;;;;;;;4.20;100.00;100325.72;6191998;23;20035;-92
2022/12/26 01:41:46;;;;;;;1.77;1.67;;;;;;;4.08;100.00;100306.84;6191562;23;20371;-91
2022/12/26 01:44:49;;;;;;;4.63;3.95;;;;;;;4.26;100.00;100329.66;6192159;23;20022;-91
2022/12/26 01:47:16;;;;;;;2.10;1.20;;;;;;;4.26;100.00;100304.94;6216391;23;20016;-91
2022/12/26 01:49:43;;;;;;;2.33;2.13;;;;;;;4.31;100.00;100318.31;6191684;23;20078;-90
2022/12/26 01:52:14;;;;;;;0.65;0.65;;;;;;;4.18;100.00;100295.13;6225124;23;20067;-96
2022/12/26 01:54:42;;;;;;;1.95;1.80;;;;;;;4.21;100.00;100294.34;6203863;23;20008;-96
2022/12/26 01:57:16;;;;;;;4.13;2.15;;;;;;;4.28;100.00;100305.34;6202269;23;20252;-94
2022/12/26 01:59:43;;;;;;;1.45;1.30;;;;;;;4.17;100.00;100283.34;6203867;23;20043;-96
2022/12/26 02:02:09;;;;;;;1.27;1.27;;;;;;;4.15;100.00;100293.94;6203397;23;20004;-96
2022/12/26 02:07:25;;;;;;;1.50;1.40;;;;;;;3.95;100.00;100276.22;6237831;22;20298;-95
2022/12/26 02:09:51;;;;;;;4.30;2.88;;;;;;;4.09;100.00;100291.94;6208153;22;20096;-91
2022/12/26 02:12:24;;;;;;;1.65;1.52;;;;;;;4.12;100.00;100278.25;6196507;22;20058;-91
2022/12/26 02:14:50;;;;;;;1.67;1.58;;;;;;;4.08;100.00;100271.97;6196715;22;20580;-91
2022/12/26 02:17:16;;;;;;;0.85;0.85;;;;;;;4.12;100.00;100288.44;6196112;22;20465;-90
2022/12/26 02:19:55;;;;;;;1.35;1.27;;;;;;;4.14;100.00;100288.81;6196242;22;20039;-91
2022/12/26 02:23:10;;;;;;;3.70;2.65;;;;;;;4.18;100.00;100300.59;6196257;22;20453;-91
2022/12/26 02:26:03;;;;;;;2.50;2.35;;;;;;;4.25;100.00;100306.09;6214703;22;20019;-90
2022/12/26 02:28:44;;;;;;;6.10;3.63;;;;;;;4.25;100.00;100316.34;6221526;22;20088;-96
2022/12/26 02:31:18;;;;;;;0.45;0.45;;;;;;;3.91;100.00;100263.66;6221067;22;20023;-95
2022/12/26 02:34:01;;;;;;;6.18;2.38;;;;;;;3.92;100.00;100265.22;6208945;22;20030;-95
2022/12/26 02:36:27;;;;;;;;;;;;;;;4.15;100.00;100306.88;6210168;22;20026;-95
2022/12/26 02:39:18;;;;;;;1.65;1.55;;;;;;;3.97;100.00;100289.53;6233061;22;19915;-96
2022/12/26 02:41:51;;;;;;;2.08;1.98;;;;;;;3.78;100.00;100259.69;6233523;22;20012;-96
2022/12/26 02:47:36;;;;;;;2.42;2.03;;;;;;;3.65;100.00;100268.25;6208080;22;20019;-96
2022/12/26 03:14:49;;;;;;;0.98;0.85;;;;;;;3.97;100.00;100289.53;6225014;22;20073;-91
2022/12/26 03:17:27;;;;;;;3.40;1.75;;;;;;;3.88;100.00;100275.41;6194851;22;20019;-89
2022/12/26 03:19:58;;;;;;;0.73;0.70;;;;;;;3.88;100.00;100272.66;6196012;22;20016;-89
2022/12/26 03:22:44;;;;;;;1.27;1.23;;;;;;;4.00;100.00;100286.84;6195414;22;20081;-89
2022/12/26 03:28:08;;;;;;;2.55;2.30;;;;;;;3.80;100.00;100263.63;6245788;22;20042;-90
2022/12/26 03:30:49;;;;;;;2.30;2.10;;;;;;;3.87;100.00;100262.84;6195160;22;20426;-90
2022/12/26 03:36:30;;;;;;;1.90;1.80;;;;;;;4.05;100.00;100291.13;6224860;22;20054;-89
2022/12/26 03:39:12;;;;;;;0.93;0.93;;;;;;;4.09;100.00;100294.69;6220429;22;20016;-89
2022/12/26 04:20:48;;;;;;;1.75;1.23;;;;;;;3.36;100.00;100337.03;6241251;22;20595;-91
2022/12/26 04:45:44;;;;;;;4.75;2.58;;;;;;;3.34;100.00;100351.13;6224495;22;20014;-90
2022/12/26 04:50:54;;;;;;;0.70;0.70;;;;;;;3.16;100.00;100336.47;6224224;22;20437;-91
2022/12/26 04:53:20;;;;;;;2.95;1.60;;;;;;;3.28;100.00;100358.09;6195364;22;20053;-89
2022/12/26 04:55:46;;;;;;;3.05;2.20;;;;;;;3.13;100.00;100340.78;6195843;22;20342;-90
2022/12/26 04:58:12;;;;;;;1.33;1.23;;;;;;;3.26;100.00;100363.19;6194773;22;20035;-93
2022/12/26 05:00:39;;;;;;;1.73;1.63;;;;;;;3.19;100.00;100349.44;6195100;22;20031;-91
2022/12/26 05:11:16;;;;;;;0.85;0.85;;;;;;;3.33;100.00;100354.22;6224453;22;20090;-89
2022/12/26 05:13:42;;;;;;;5.35;2.28;;;;;;;3.41;100.00;100347.63;6195095;22;20090;-89
2022/12/26 05:29:56;;;;;;;4.13;2.55;;;;;;;3.07;100.00;100333.28;6245285;22;20012;-96
2022/12/26 05:35:07;;;;;;;3.17;2.88;;;;;;;3.01;100.00;100332.84;6239393;22;20018;-96
2022/12/26 05:37:34;;;;;;;2.45;2.25;;;;;;;2.88;100.00;100325.28;6211092;22;20008;-96
2022/12/26 05:40:00;;;;;;;1.00;1.00;;;;;;;2.91;100.00;100327.28;6235672;22;20078;-96
2022/12/26 05:42:26;;;;;;;5.28;2.92;;;;;;;2.91;100.00;100332.75;6235927;22;20019;-96
2022/12/26 05:44:52;;;;;;;3.45;3.17;;;;;;;2.88;100.00;100322.53;6231070;22;20004;-96
2022/12/26 05:47:18;;;;;;;0.82;0.82;;;;;;;3.05;100.00;100336.41;6205269;22;20016;-96
2022/12/26 05:49:44;;;;;;;3.63;2.97;;;;;;;3.18;100.00;100336.88;6203213;22;20030;-96
2022/12/26 05:52:10;;;;;;;1.75;1.50;;;;;;;3.19;100.00;100342.00;6228188;22;20098;-96
2022/12/26 05:54:36;;;;;;;2.38;2.17;;;;;;;3.06;100.00;100307.84;6204872;22;20011;-96
2022/12/26 05:57:02;;;;;;;1.25;0.85;;;;;;;3.25;100.00;100336.94;6201431;22;20460;-94
2022/12/26 05:59:29;;;;;;;2.63;1.42;;;;;;;3.24;100.00;100335.34;6200937;22;20023;-93
2022/12/26 06:01:54;;;;;;;1.13;0.63;;;;;;;3.23;100.00;100328.31;6201020;22;20000;-94
2022/12/26 06:04:20;;;;;;;3.65;3.30;;;;;;;3.13;100.00;100329.00;6200520;22;20061;-95
2022/12/26 06:06:46;;;;;;;3.58;3.17;;;;;;;2.97;100.00;100298.34;6201116;22;20069;-96
2022/12/26 06:09:12;;;;;;;0.90;0.90;;;;;;;3.14;100.00;100336.06;6200263;22;20084;-96
2022/12/26 06:11:37;;;;;;;1.38;1.27;;;;;;;3.04;100.00;100328.53;6200967;22;20027;-94
2022/12/26 06:14:03;;;;;;;1.95;1.85;;;;;;;3.17;100.00;100338.84;6200182;22;20027;-94
2022/12/26 06:16:29;;;;;;;0.60;0.60;;;;;;;3.01;100.00;100296.41;6200875;22;20003;-94
2022/12/26 06:18:55;;;;;;;1.58;1.48;;;;;;;3.24;100.00;100330.66;6199428;22;20283;-94
2022/12/26 06:21:22;;;;;;;1.92;1.83;;;;;;;3.00;100.00;100298.38;6202711;22;20007;-94
2022/12/26 06:23:48;;;;;;;1.33;1.27;;;;;;;3.19;100.00;100327.50;6203565;22;20107;-95
2022/12/26 06:26:15;;;;;;;1.58;1.48;;;;;;;3.09;100.00;100306.28;6203604;22;20050;-96
2022/12/26 06:28:42;;;;;;;2.45;2.28;;;;;;;3.18;100.00;100321.25;6201268;22;20041;-95
2022/12/26 06:31:16;;;;;;;2.88;1.95;;;;;;;3.03;100.00;100305.06;6200069;22;20449;-95
2022/12/26 06:33:42;;;;;;;1.73;1.60;;;;;;;3.06;100.00;100335.25;6200383;22;20012;-93
2022/12/26 06:36:11;;;;;;;2.75;2.55;;;;;;;2.92;100.00;100317.88;6200846;22;20007;-95
2022/12/26 06:38:37;;;;;;;2.00;1.80;;;;;;;2.99;100.00;100346.16;6195864;22;20122;-90
2022/12/26 06:41:07;;;;;;;1.83;1.70;;;;;;;2.98;100.00;100355.53;6196161;22;20413;-91
2022/12/26 06:43:33;;;;;;;1.92;1.70;;;;;;;2.75;100.00;100322.81;6220825;22;20106;-90
2022/12/26 06:46:00;;;;;;;2.63;2.28;;;;;;;2.97;100.00;100356.69;6196404;22;20054;-92
2022/12/26 06:48:27;;;;;;;6.45;2.88;;;;;;;2.83;100.00;100332.66;6196395;22;20011;-91
2022/12/26 06:50:56;;;;;;;1.55;1.27;;;;;;;2.95;100.00;100344.53;6195421;22;20011;-91
2022/12/26 06:53:22;;;;;;;1.63;1.52;;;;;;;2.96;100.00;100343.34;6195383;22;20003;-92
2022/12/26 06:55:49;;;;;;;1.38;1.27;;;;;;;3.12;100.00;100363.84;6193645;22;20030;-96
2022/12/26 06:58:15;;;;;;;6.05;3.53;;;;;;;2.91;100.00;100325.31;6201811;22;20012;-96
2022/12/26 07:00:41;;;;;;;5.78;3.08;;;;;;;3.18;100.00;100364.31;6226518;22;20055;-95
2022/12/26 07:03:07;;;;;;;4.45;2.30;;;;;;;3.12;100.00;100344.66;6202176;22;20011;-96
2022/12/26 07:05:35;;;;;;;2.42;2.22;;;;;;;3.01;100.00;100327.34;6228597;22;20042;-95
2022/12/26 07:08:01;;;;;;;2.53;1.92;;;;;;;3.11;100.00;100343.13;6229888;22;20016;-95
2022/12/26 07:10:26;;;;;;;1.83;1.73;;;;;;;3.22;100.00;100359.63;6229341;22;20011;-94
2022/12/26 07:12:52;;;;;;;1.27;1.17;;;;;;;3.12;100.00;100344.66;6203829;22;20038;-94
2022/12/26 07:15:18;;;;;;;2.85;2.42;;;;;;;3.25;100.00;100347.91;6200355;22;20015;-96
2022/12/26 07:17:44;;;;;;;1.85;1.75;;;;;;;3.29;100.00;100344.03;6202119;22;20453;-95
2022/12/26 07:20:10;;;;;;;3.45;2.03;;;;;;;3.24;100.00;100313.44;6228859;22;20000;-95
2022/12/26 07:22:36;;;;;;;3.55;2.88;;;;;;;3.34;100.00;100339.34;6202381;22;20015;-95
2022/12/26 07:25:02;;;;;;;2.75;1.45;;;;;;;3.43;100.00;100326.91;6202207;22;20012;-96
2022/12/26 07:27:28;;;;;;;6.10;1.52;;;;;;;3.61;100.00;100338.75;6199734;22;20034;-95
2022/12/26 07:29:54;;;;;;;0.75;0.75;;;;;;;3.89;100.00;100360.06;6198562;22;20016;-94
2022/12/26 07:32:19;;;;;;;3.15;1.98;;;;;;;3.83;100.00;100322.41;6202162;22;20485;-95
2022/12/26 07:34:45;;;;;;;2.28;1.30;;;;;;;3.93;100.00;100321.66;6215777;22;20014;-93
2022/12/26 07:37:11;;;;;;;2.40;2.20;;;;;;;4.14;100.00;100335.50;6230879;22;20019;-92
2022/12/26 07:39:37;;;;;;;2.63;2.30;;;;;;;4.36;100.00;100372.84;6194088;22;20315;-92
2022/12/26 07:42:03;;;;;;;1.45;1.13;;;;;;;4.34;100.00;100353.22;6194824;22;20108;-93
2022/12/26 07:44:32;;;;;;;1.02;1.02;;;;;;;4.50;100.00;100361.91;6195263;22;20342;-93
2022/12/26 07:46:58;;;;;;;2.28;2.08;;;;;;;4.55;100.00;100360.75;6194150;22;20218;-91
2022/12/26 07:49:24;;;;;;;2.28;1.77;;;;;;;4.48;100.00;100349.75;6194714;22;20020;-91
2022/12/26 07:51:50;;;;;;;3.40;2.53;;;;;;;4.52;100.00;100369.78;6195672;22;20012;-92
2022/12/26 07:54:16;;;;;;;1.27;1.17;;;;;;;4.45;100.00;100359.53;6194607;22;20438;-91
2022/12/26 07:56:42;;;;;;;0.68;0.63;;;;;;;4.51;100.00;100359.94;6219140;22;20008;-88
2022/12/26 07:59:16;;;;;;;2.08;1.90;;;;;;;4.70;100.00;100387.88;6218276;22;20068;-89
2022/12/26 08:01:44;;;;;;;0.65;0.65;;;;;;;4.75;100.00;100385.91;6194328;22;20016;-90
2022/12/26 08:04:11;;;;;;;0.80;0.80;;;;;;;4.80;100.00;100383.59;6218695;22;20007;-90
2022/12/26 08:06:37;;;;;;;1.42;1.33;;;;;;;4.75;100.00;100372.19;6195082;22;20045;-92
2022/12/26 08:09:03;;;;;;;2.67;2.47;;;;;;;4.90;100.00;100391.03;6193681;22;20816;-90
2022/12/26 08:11:32;;;;;;;0.60;0.60;;;;;;;4.92;100.00;100383.22;6192313;22;20077;-92
2022/12/26 08:13:58;;;;;;;1.33;1.23;;;;;;;4.99;100.00;100393.41;6193904;22;20011;-91
2022/12/26 08:16:25;;;;;;;2.50;2.30;;;;;;;4.94;100.00;100374.56;6193022;22;20074;-90
2022/12/26 08:18:51;;;;;;;1.02;1.02;;;;;;;4.95;100.00;100379.69;6194900;22;20338;-90
2022/12/26 08:21:17;;;;;;;0.93;0.93;;;;;;;4.99;100.00;100379.69;6219432;22;20007;-91
2022/12/26 08:23:42;;;;;;;2.15;1.98;;;;;;;5.09;100.00;100398.16;6271673;22;20008;-90
2022/12/26 08:26:10;;;;;;;1.08;1.08;;;;;;;5.04;100.00;100391.09;6268436;22;20019;-91
2022/12/26 08:28:36;;;;;;;1.27;1.17;;;;;;;5.04;100.00;100379.31;6243226;22;20004;-91
2022/12/26 08:31:08;;;;;;;0.68;0.68;;;;;;;5.34;100.00;100415.44;6269772;22;20012;-91
2022/12/26 08:33:34;;;;;;;1.00;1.00;;;;;;;5.28;100.00;100391.50;6271481;22;20105;-90
2022/12/26 08:36:04;;;;;;;1.38;1.27;;;;;;;5.56;100.00;100406.03;6244703;22;20392;-91
2022/12/26 08:38:30;;;;;;;0.90;0.88;;;;;;;5.52;100.00;100416.25;6270908;22;20315;-91
2022/12/26 08:40:56;;;;;;;3.13;2.38;;;;;;;5.45;100.00;100408.00;6218341;22;20011;-90
2022/12/26 08:43:23;;;;;;;1.45;1.38;;;;;;;5.73;100.00;100431.19;6243907;22;19999;-89
2022/12/26 08:46:07;;;;;;;5.30;3.65;;;;;;;5.71;100.00;100414.25;6217536;22;20024;-91
2022/12/26 08:48:32;;;;;;;;;;;;;;;5.80;100.00;100431.97;6243233;22;20127;-91
2022/12/26 08:51:01;;;;;;;1.30;1.20;;;;;;;5.87;100.00;100420.97;6254016;22;19942;-95
2022/12/26 08:53:34;;;;;;;0.65;0.65;;;;;;;5.60;100.00;100384.78;6205290;22;20315;-94
2022/12/26 08:56:02;;;;;;;0.50;0.50;;;;;;;5.68;100.00;100380.06;6226355;22;20049;-93
2022/12/26 08:58:28;;;;;;;1.95;1.83;;;;;;;5.73;100.00;100381.63;6205016;22;20043;-94
2022/12/26 09:00:54;;;;;;;0.88;0.88;;;;;;;5.91;100.00;100398.91;6206210;22;20011;-93
2022/12/26 09:03:20;;;;;;;1.58;1.48;;;;;;;5.95;100.00;100402.44;6204875;22;20042;-96
2022/12/26 09:05:46;;;;;;;2.65;1.77;;;;;;;6.08;100.00;100409.13;6227598;22;20059;-95
2022/12/26 09:08:12;;;;;;;1.63;1.52;;;;;;;6.00;100.00;100369.81;6228335;22;20011;-94
2022/12/26 09:10:38;;;;;;;0.28;0.28;;;;;;;6.01;100.00;100373.34;6202961;22;20043;-95
2022/12/26 09:13:04;;;;;;;0.38;0.38;;;;;;;6.04;100.00;100370.56;6203213;22;20030;-94
2022/12/26 09:15:29;;;;;;;1.73;1.63;;;;;;;6.40;100.00;100411.75;6203650;22;20015;-94
2022/12/26 09:17:55;;;;;;;1.33;1.17;;;;;;;6.25;100.00;100380.75;6257120;22;20008;-95
2022/12/26 09:20:22;;;;;;;1.98;1.55;;;;;;;6.32;100.00;100380.72;6232235;22;20019;-95
2022/12/26 09:22:50;;;;;;;1.02;1.02;;;;;;;6.31;100.00;100373.63;6214139;22;20016;-95
2022/12/26 09:25:18;;;;;;;0.32;0.32;;;;;;;6.42;100.00;100388.16;6213243;22;20019;-94
2022/12/26 09:27:44;;;;;;;2.30;2.15;;;;;;;6.66;100.00;100429.78;6211786;22;20033;-95
2022/12/26 09:30:11;;;;;;;2.10;1.80;;;;;;;6.74;100.00;100428.56;6210857;22;20046;-94
2022/12/26 09:32:37;;;;;;;0.90;0.90;;;;;;;6.53;100.00;100375.09;6228432;22;20012;-94
2022/12/26 09:35:03;;;;;;;2.40;1.98;;;;;;;6.59;100.00;100374.69;6210754;22;20014;-95
2022/12/26 09:37:30;;;;;;;1.00;0.93;;;;;;;6.75;100.00;100363.97;6218599;22;20071;-94
2022/12/26 11:56:38;;;;;;;0.77;0.77;;;;;;;12.23;100.00;100301.78;6304371;22;20034;-95
2022/12/26 11:59:19;;;;;;;0.68;0.68;;;;;;;12.39;100.00;100320.38;6227103;22;20011;-95
2022/12/26 12:01:45;;;;;;;2.85;2.10;;;;;;;12.33;100.00;100291.56;6225359;22;20022;-91
2022/12/26 12:04:11;;;;;;;1.98;1.88;;;;;;;12.26;100.00;100286.97;6220376;22;20007;-90
2022/12/26 12:06:52;;;;;;;1.60;0.85;;;;;;;12.45;100.00;100321.41;6246717;22;20046;-91
2022/12/26 12:10:00;;;;;;;0.75;0.75;;;;;;;12.23;100.00;100309.34;6248426;22;20011;-91
2022/12/26 12:12:45;;;;;;;0.45;0.45;;;;;;;12.35;100.00;100311.38;6231126;22;20026;-91
2022/12/26 12:15:35;;;;;;;1.90;0.77;;;;;;;12.40;100.00;100324.72;6222352;22;20047;-91
2022/12/26 12:18:25;;;;;;;3.10;1.02;;;;;;;12.57;100.00;100318.66;6222968;22;20353;-91
2022/12/26 12:21:20;;;;;;;0.98;0.93;;;;;;;12.66;100.00;100315.19;6246955;22;20007;-91
2022/12/26 12:24:21;;;;;;;2.50;1.58;;;;;;;12.87;100.00;100314.53;6267400;22;20015;-91
2022/12/26 12:27:14;;;;;;;0.40;0.40;;;;;;;12.94;100.00;100314.28;6245555;22;20019;-90
2022/12/26 12:30:17;;;;;;;2.53;1.45;;;;;;;12.93;100.00;100300.81;6218114;22;20011;-90
2022/12/26 12:33:01;;;;;;;0.68;0.68;;;;;;;12.87;100.00;100300.59;6247507;22;20029;-91
2022/12/26 12:35:55;;;;;;;0.50;0.47;;;;;;;12.87;100.00;100292.25;6246638;22;20437;-91
2022/12/26 12:38:42;;;;;;;;;;;;;;;12.95;100.00;100282.44;6221889;22;20019;-93
2022/12/26 12:41:48;;;;;;;1.30;1.08;;;;;;;12.88;100.00;100270.75;6268185;22;20336;-95
2022/12/26 12:44:18;;;;;;;0.98;0.93;;;;;;;12.90;100.00;100283.00;6275449;22;20019;-95
2022/12/26 12:47:21;;;;;;;0.68;0.68;;;;;;;12.81;100.00;100274.56;6252199;22;20455;-95
2022/12/26 12:49:50;;;;;;;4.28;2.00;;;;;;;12.85;100.00;100275.22;6250498;22;20042;-94
2022/12/26 12:52:34;;;;;;;0.60;0.57;;;;;;;12.77;100.00;100259.19;6251530;22;19999;-94
2022/12/26 12:55:10;;;;;;;0.63;0.63;;;;;;;12.81;100.00;100255.06;6227158;22;20026;-95
2022/12/26 12:57:52;;;;;;;1.23;0.80;;;;;;;12.94;100.00;100264.16;6254292;22;20015;-94
2022/12/26 13:00:24;;;;;;;1.55;1.10;;;;;;;12.94;100.00;100241.91;6225351;22;20046;-92
2022/12/26 13:02:54;;;;;;;0.25;0.25;;;;;;;13.00;100.00;100233.75;6224798;22;20022;-90
2022/12/26 13:05:41;;;;;;;0.68;0.68;;;;;;;12.88;100.00;100217.88;6221544;22;20019;-90
2022/12/26 13:08:35;;;;;;;0.85;0.70;;;;;;;12.90;100.00;100224.53;6271392;22;20145;-92
2022/12/26 13:11:24;;;;;;;1.52;0.88;;;;;;;12.93;100.00;100218.09;6224474;22;20022;-92
2022/12/26 13:14:12;;;;;;;1.00;0.65;;;;;;;13.08;100.00;100224.72;6247868;22;20015;-91
2022/12/26 13:16:42;;;;;;;1.10;1.00;;;;;;;13.00;100.00;100209.50;6223367;22;20523;-91
2022/12/26 13:19:20;;;;;;;1.45;0.75;;;;;;;13.13;100.00;100226.19;6248714;22;20011;-90
2022/12/26 13:21:47;;;;;;;3.58;0.73;;;;;;;12.96;100.00;100206.03;6249136;22;20026;-92
2022/12/26 13:24:24;;;;;;;0.55;0.55;;;;;;;13.06;100.00;100232.75;6225183;22;20006;-90
2022/12/26 13:27:19;;;;;;;0.10;0.10;;;;;;;13.08;100.00;100229.50;6225416;22;20837;-90
2022/12/26 13:29:46;;;;;;;0.77;0.77;;;;;;;13.06;100.00;100227.16;6221819;22;20018;-92
2022/12/26 13:32:16;;;;;;;0.43;0.40;;;;;;;12.91;100.00;100217.75;6219014;22;20011;-92
2022/12/26 13:34:43;;;;;;;0.45;0.45;;;;;;;12.94;100.00;100227.22;6245193;22;20015;-90
2022/12/26 13:37:38;;;;;;;0.52;0.52;;;;;;;12.93;100.00;100245.16;6220228;22;20015;-92
2022/12/26 13:40:12;;;;;;;1.95;0.75;;;;;;;12.88;100.00;100243.69;6272229;22;20094;-90
2022/12/26 13:45:41;;;;;;;0.20;0.20;;;;;;;12.80;100.00;100253.50;6250722;22;20015;-90
2022/12/26 13:48:15;;;;;;;0.55;0.55;;;;;;;12.74;100.00;100260.84;6245673;22;20030;-90
2022/12/26 13:50:56;;;;;;;0.50;0.50;;;;;;;12.57;100.00;100276.91;6244254;22;20529;-92
2022/12/26 13:53:25;;;;;;;0.68;0.43;;;;;;;12.49;100.00;100266.44;6247822;22;20092;-91
2022/12/26 13:55:50;;;;;;;0.25;0.17;;;;;;;12.47;100.00;100257.75;6246180;22;20015;-91
2022/12/26 13:58:39;;;;;;;0.20;0.20;;;;;;;12.28;100.00;100244.81;6245814;22;20022;-92
2022/12/26 14:01:25;;;;;;;0.95;0.88;;;;;;;12.31;100.00;100260.63;6245027;22;20023;-92
2022/12/26 14:04:21;;;;;;;1.65;1.55;;;;;;;12.21;100.00;100264.50;6243478;22;20402;-90
2022/12/26 14:07:06;;;;;;;0.52;0.52;;;;;;;12.11;100.00;100269.16;6221253;22;20419;-89
2022/12/26 14:09:44;;;;;;;0.88;0.88;;;;;;;12.06;100.00;100266.91;6245135;22;20045;-91
2022/12/26 14:12:40;;;;;;;0.60;0.60;;;;;;;12.01;100.00;100265.44;6221387;22;20042;-90
2022/12/26 14:15:33;;;;;;;6.47;0.90;;;;;;;11.92;100.00;100265.34;6211251;22;20021;-91
2022/12/26 14:18:17;;;;;;;0.57;0.57;;;;;;;11.75;100.00;100251.94;6226258;22;20022;-94
2022/12/26 14:20:52;;;;;;;1.42;0.68;;;;;;;11.78;100.00;100268.50;6278465;22;20015;-95
2022/12/26 14:23:45;;;;;;;0.47;0.47;;;;;;;11.73;100.00;100271.81;6279854;22;20018;-94
2022/12/26 14:26:19;;;;;;;0.60;0.60;;;;;;;11.66;100.00;100272.78;6252406;22;20015;-93
2022/12/26 14:28:45;;;;;;;0.60;0.57;;;;;;;11.60;100.00;100273.75;6252656;22;20013;-95
2022/12/26 14:31:26;;;;;;;2.25;2.05;;;;;;;11.51;100.00;100268.81;6252830;22;20086;-94
2022/12/26 14:34:08;;;;;;;0.80;0.75;;;;;;;11.45;100.00;100261.44;6253107;22;20358;-95
2022/12/26 14:36:47;;;;;;;0.63;0.63;;;;;;;11.29;100.00;100247.59;6277740;22;20045;-91
2022/12/26 14:39:15;;;;;;;1.55;1.25;;;;;;;11.32;100.00;100250.31;6223604;22;20352;-90
2022/12/26 14:44:52;;;;;;;0.20;0.20;;;;;;;11.12;100.00;100252.41;6302188;22;20042;-88
2022/12/26 14:47:39;;;;;;;0.20;0.20;;;;;;;11.09;100.00;100262.38;6272782;22;20011;-90
2022/12/26 14:50:37;;;;;;;0.30;0.30;;;;;;;11.02;100.00;100273.66;6301145;22;20038;-90
2022/12/26 14:53:28;;;;;;;2.55;0.65;;;;;;;10.93;100.00;100279.03;6302484;22;20022;-94
2022/12/26 14:56:29;;;;;;;0.52;0.52;;;;;;;10.83;100.00;100277.31;6247907;22;20020;-95
2022/12/26 14:59:23;;;;;;;1.42;0.73;;;;;;;10.78;100.00;100286.16;6223292;22;20087;-94
2022/12/26 15:02:17;;;;;;;0.30;0.30;;;;;;;10.63;100.00;100280.16;6273881;22;20019;-94
2022/12/26 15:04:58;;;;;;;;;;;;;;;10.54;100.00;100279.19;6248909;22;20016;-94
2022/12/26 15:07:45;;;;;;;0.10;0.10;;;;;;;10.44;100.00;100285.72;6247030;22;19959;-95
2022/12/26 15:10:36;;;;;;;0.50;0.50;;;;;;;10.29;100.00;100266.66;6271970;22;20043;-94
2022/12/26 15:13:05;;;;;;;0.60;0.60;;;;;;;10.19;100.00;100251.00;6247363;22;20016;-95
2022/12/26 15:16:05;;;;;;;0.03;0.03;;;;;;;9.98;100.00;100239.59;6239966;22;20083;-90
2022/12/26 15:19:01;;;;;;;0.52;0.52;;;;;;;9.97;100.00;100272.06;6267806;22;20020;-90
2022/12/26 15:22:01;;;;;;;1.38;0.43;;;;;;;9.88;100.00;100268.28;6266493;22;20016;-90
2022/12/26 15:25:04;;;;;;;0.40;0.40;;;;;;;9.65;100.00;100274.69;6267146;22;20008;-89
2022/12/26 15:27:50;;;;;;;0.47;0.38;;;;;;;9.51;100.00;100261.09;6264130;22;20420;-90
2022/12/26 15:30:16;;;;;;;0.30;0.30;;;;;;;9.47;100.00;100272.22;6238536;22;20014;-89
2022/12/26 15:33:11;;;;;;;0.05;0.05;;;;;;;9.14;100.00;100260.16;6222118;22;20460;-96
2022/12/26 15:35:56;;;;;;;1.13;1.13;;;;;;;9.05;100.00;100264.69;6242853;22;20015;-94
2022/12/26 15:38:30;;;;;;;4.30;2.47;;;;;;;9.14;100.00;100287.84;6221983;22;20087;-96
2022/12/26 15:41:16;;;;;;;3.33;2.13;;;;;;;8.69;100.00;100237.63;6271728;22;20379;-94
2022/12/26 15:44:19;;;;;;;0.32;0.32;;;;;;;8.87;100.00;100287.09;6249247;22;20016;-93
2022/12/26 15:47:23;;;;;;;1.23;1.13;;;;;;;8.70;100.00;100275.13;6246777;22;20115;-94
2022/12/26 15:50:00;;;;;;;0.30;0.30;;;;;;;8.57;100.00;100260.31;6242888;22;20015;-90
2022/12/26 15:52:35;;;;;;;3.05;1.98;;;;;;;8.67;100.00;100272.41;6248111;22;20025;-89
2022/12/26 15:55:00;;;;;;;1.00;1.00;;;;;;;8.63;100.00;100266.16;6245143;22;20020;-90
2022/12/26 15:57:41;;;;;;;0.40;0.40;;;;;;;8.47;100.00;100246.63;6272954;22;20023;-89
2022/12/26 16:00:15;;;;;;;1.60;1.50;;;;;;;8.41;100.00;100255.41;6271799;22;20015;-90
2022/12/26 16:03:02;;;;;;;1.75;1.65;;;;;;;8.26;100.00;100248.47;6247627;22;20345;-89
2022/12/26 16:05:39;;;;;;;0.20;0.20;;;;;;;8.29;100.00;100260.72;6246459;22;20395;-90
2022/12/26 16:08:39;;;;;;;0.43;0.43;;;;;;;8.25;100.00;100263.50;6223998;22;20011;-91
2022/12/26 16:11:26;;;;;;;0.30;0.30;;;;;;;8.19;100.00;100258.84;6274761;22;20022;-91
2022/12/26 16:14:01;;;;;;;1.23;1.13;;;;;;;8.06;100.00;100255.06;6247718;22;20017;-90
2022/12/26 16:16:33;;;;;;;1.02;0.65;;;;;;;8.00;100.00;100253.97;6221145;22;20827;-90
2022/12/26 16:19:17;;;;;;;0.90;0.75;;;;;;;8.00;100.00;100252.00;6273900;22;20012;-90
2022/12/26 16:24:32;;;;;;;0.77;0.77;;;;;;;7.97;100.00;100248.06;6247884;22;20152;-89
2022/12/26 16:27:00;;;;;;;0.20;0.20;;;;;;;7.96;100.00;100246.53;6243761;22;20022;-90
2022/12/26 16:29:26;;;;;;;0.40;0.40;;;;;;;7.93;100.00;100244.56;6232480;22;20445;-94
2022/12/26 16:32:01;;;;;;;1.25;0.80;;;;;;;7.89;100.00;100237.53;6231914;22;20003;-95